createdAt,value
2018-01-10T00:00:16.831Z,22.83
2018-01-10T00:02:44.787Z,22.07
2018-01-10T00:05:13.132Z,21.53
2018-01-10T00:07:40.592Z,22.40
2018-01-10T00:10:08.394Z,22.37
2018-01-10T00:12:35.849Z,22.60
2018-01-10T00:15:03.355Z,19.67
2018-01-10T00:17:30.831Z,22.70
2018-01-10T00:19:58.371Z,22.53
2018-01-10T00:22:25.842Z,22.17
2018-01-10T00:24:53.673Z,23.03
2018-01-10T00:27:21.155Z,22.50
2018-01-10T00:29:48.667Z,21.43
2018-01-10T00:32:16.197Z,23.13
2018-01-10T00:34:43.717Z,23.27
2018-01-10T00:37:11.339Z,22.87
2018-01-10T00:39:38.814Z,22.47
2018-01-10T00:42:06.327Z,24.33
2018-01-10T00:44:33.864Z,22.73
2018-01-10T00:47:01.368Z,22.60
2018-01-10T00:49:28.836Z,23.90
2018-01-10T00:51:56.354Z,23.97
2018-01-10T00:54:23.824Z,24.93
2018-01-10T00:56:51.298Z,23.13
2018-01-10T00:59:18.755Z,22.83
2018-01-10T01:01:46.365Z,23.60
2018-01-10T01:04:13.898Z,22.60
2018-01-10T01:06:41.413Z,23.20
2018-01-10T01:09:08.925Z,25.00
2018-01-10T01:11:36.448Z,22.80
2018-01-10T01:14:04.099Z,22.97
2018-01-10T01:16:31.571Z,23.50
2018-01-10T01:18:59.061Z,23.07
2018-01-10T01:21:26.633Z,23.47
2018-01-10T01:23:54.113Z,22.87
2018-01-10T01:26:21.749Z,23.60
2018-01-10T01:28:49.218Z,23.23
2018-01-10T01:31:16.748Z,22.70
2018-01-10T01:33:44.944Z,22.63
2018-01-10T01:36:12.439Z,21.93
2018-01-10T01:38:39.912Z,24.83
2018-01-10T01:41:07.382Z,24.20
2018-01-10T01:43:34.850Z,23.43
2018-01-10T01:46:02.309Z,23.43
2018-01-10T01:48:29.782Z,23.27
2018-01-10T01:50:58.121Z,22.17
2018-01-10T01:53:25.669Z,22.87
2018-01-10T01:55:54.221Z,24.17
2018-01-10T01:58:21.728Z,24.30
2018-01-10T02:00:49.723Z,23.43
2018-01-10T02:03:17.706Z,24.60
2018-01-10T02:05:45.179Z,23.10
2018-01-10T02:08:13.834Z,24.30
2018-01-10T02:10:41.415Z,22.80
2018-01-10T02:13:08.941Z,21.87
2018-01-10T02:15:36.436Z,24.03
2018-01-10T02:18:03.977Z,23.07
2018-01-10T02:20:31.876Z,23.30
2018-01-10T02:22:59.412Z,22.17
2018-01-10T02:25:26.962Z,24.47
2018-01-10T02:28:00.167Z,23.40
2018-01-10T02:30:27.694Z,23.90
2018-01-10T02:32:55.199Z,22.37
2018-01-10T02:35:23.040Z,23.87
2018-01-10T02:37:50.519Z,21.93
2018-01-10T02:40:18.256Z,22.13
2018-01-10T02:42:45.713Z,21.10
2018-01-10T02:45:13.220Z,22.77
2018-01-10T02:47:40.713Z,21.80
2018-01-10T02:50:08.190Z,23.20
2018-01-10T02:52:35.728Z,22.00
2018-01-10T02:55:03.186Z,22.87
2018-01-10T02:57:30.674Z,23.00
2018-01-10T02:59:58.257Z,22.40
2018-01-10T03:02:25.752Z,22.20
2018-01-10T03:04:53.432Z,23.17
2018-01-10T03:07:21.459Z,22.23
2018-01-10T03:09:49.236Z,21.90
2018-01-10T03:12:16.746Z,23.33
2018-01-10T03:14:44.331Z,21.70
2018-01-10T03:17:12.835Z,23.40
2018-01-10T03:19:40.927Z,21.97
2018-01-10T03:22:10.101Z,23.20
2018-01-10T03:24:38.524Z,22.60
2018-01-10T03:27:06.095Z,21.30
2018-01-10T03:29:35.517Z,20.60
2018-01-10T03:32:03.123Z,20.50
2018-01-10T03:34:30.674Z,21.80
2018-01-10T03:36:58.197Z,21.60
2018-01-10T03:39:26.046Z,21.63
2018-01-10T03:41:53.551Z,20.70
2018-01-10T03:44:21.030Z,21.07
2018-01-10T03:46:48.533Z,20.17
2018-01-10T03:49:15.995Z,22.67
2018-01-10T03:51:43.484Z,21.57
2018-01-10T03:54:10.968Z,21.63
2018-01-10T03:56:38.946Z,22.13
2018-01-10T03:59:07.294Z,22.47
2018-01-10T04:01:34.840Z,21.00
2018-01-10T04:04:02.335Z,20.87
2018-01-10T04:06:29.816Z,21.87
2018-01-10T04:08:57.294Z,21.03
2018-01-10T04:11:24.830Z,22.47
2018-01-10T04:13:52.360Z,21.20
2018-01-10T04:16:19.824Z,21.70
2018-01-10T04:18:47.428Z,22.20
2018-01-10T04:21:14.900Z,22.07
2018-01-10T04:23:42.450Z,21.30
2018-01-10T04:26:09.965Z,21.70
2018-01-10T04:28:37.504Z,21.47
2018-01-10T04:31:04.950Z,22.80
2018-01-10T04:33:32.448Z,22.80
2018-01-10T04:35:59.910Z,20.57
2018-01-10T04:38:27.517Z,21.83
2018-01-10T04:40:55.013Z,21.90
2018-01-10T04:43:22.567Z,21.07
2018-01-10T04:45:50.015Z,22.10
2018-01-10T04:48:18.068Z,21.27
2018-01-10T04:50:45.612Z,21.40
2018-01-10T04:53:13.146Z,21.30
2018-01-10T04:55:40.655Z,20.63
2018-01-10T04:58:11.551Z,20.53
2018-01-10T05:00:39.070Z,20.33
2018-01-10T05:03:06.536Z,20.20
2018-01-10T05:05:34.053Z,20.63
2018-01-10T05:08:01.584Z,20.43
2018-01-10T05:10:29.151Z,20.77
2018-01-10T05:12:56.624Z,19.90
2018-01-10T05:15:24.086Z,20.00
2018-01-10T05:17:51.649Z,19.70
2018-01-10T05:20:19.107Z,19.50
2018-01-10T05:22:46.743Z,19.63
2018-01-10T05:25:14.217Z,20.43
2018-01-10T05:27:41.695Z,19.73
2018-01-10T05:30:09.230Z,20.87
2018-01-10T05:32:36.719Z,18.40
2018-01-10T05:35:05.171Z,19.37
2018-01-10T05:37:33.326Z,19.40
2018-01-10T05:40:06.140Z,18.93
2018-01-10T05:42:33.697Z,19.00
2018-01-10T05:45:01.221Z,18.93
2018-01-10T05:47:28.749Z,18.30
2018-01-10T05:49:56.223Z,20.27
2018-01-10T05:52:23.731Z,18.30
2018-01-10T05:54:51.216Z,19.60
2018-01-10T05:57:18.739Z,17.60
2018-01-10T05:59:46.897Z,20.23
2018-01-10T06:02:14.965Z,18.87
2018-01-10T06:04:42.517Z,18.33
2018-01-10T06:07:10.070Z,19.27
2018-01-10T06:09:37.880Z,19.20
2018-01-10T06:12:06.152Z,19.40
2018-01-10T06:14:34.158Z,19.03
2018-01-10T06:17:01.658Z,19.17
2018-01-10T06:19:29.162Z,19.77
2018-01-10T06:21:56.699Z,18.83
2018-01-10T06:24:24.196Z,18.90
2018-01-10T06:26:51.759Z,19.27
2018-01-10T06:29:19.943Z,18.87
2018-01-10T06:31:48.704Z,18.30
2018-01-10T06:34:16.429Z,19.13
2018-01-10T06:36:43.920Z,18.90
2018-01-10T06:39:11.425Z,19.93
2018-01-10T06:41:39.857Z,19.87
2018-01-10T06:44:07.345Z,20.97
2018-01-10T06:46:34.875Z,17.80
2018-01-10T06:49:02.481Z,19.43
2018-01-10T06:51:29.939Z,19.20
2018-01-10T06:53:57.444Z,19.37
2018-01-10T06:56:25.050Z,20.03
2018-01-10T06:58:52.561Z,19.67
2018-01-10T07:01:20.020Z,20.57
2018-01-10T07:03:47.568Z,20.13
2018-01-10T07:06:15.091Z,19.27
2018-01-10T07:08:42.541Z,20.17
2018-01-10T07:11:10.011Z,20.13
2018-01-10T07:13:37.532Z,19.23
2018-01-10T07:16:05.043Z,20.57
2018-01-10T07:18:32.543Z,20.10
2018-01-10T07:21:00.157Z,20.20
2018-01-10T07:23:27.705Z,20.83
2018-01-10T07:25:55.238Z,19.57
2018-01-10T07:28:22.744Z,18.90
2018-01-10T07:30:50.200Z,18.87
2018-01-10T07:33:18.042Z,19.83
2018-01-10T07:35:45.496Z,20.37
2018-01-10T07:38:13.018Z,20.40
2018-01-10T07:40:40.514Z,19.33
2018-01-10T07:43:08.084Z,20.07
2018-01-10T07:45:35.585Z,20.33
2018-01-10T07:48:03.083Z,18.80
2018-01-10T07:50:30.632Z,19.93
2018-01-10T07:52:58.234Z,19.73
2018-01-10T07:55:25.754Z,19.83
2018-01-10T07:57:53.528Z,18.47
2018-01-10T08:00:21.269Z,19.17
2018-01-10T08:02:49.616Z,19.07
2018-01-10T08:05:17.128Z,19.80
2018-01-10T08:07:44.687Z,19.27
2018-01-10T08:10:12.241Z,18.60
2018-01-10T08:12:39.933Z,19.67
2018-01-10T08:15:07.413Z,19.87
2018-01-10T08:17:34.987Z,19.40
2018-01-10T08:20:02.451Z,18.43
2018-01-10T08:22:30.075Z,20.13
2018-01-10T08:24:57.559Z,19.67
2018-01-10T08:27:25.026Z,19.83
2018-01-10T08:29:52.490Z,18.90
2018-01-10T08:32:20.787Z,19.97
2018-01-10T08:34:49.163Z,20.30
2018-01-10T08:37:16.711Z,19.50
2018-01-10T08:39:44.321Z,20.37
2018-01-10T08:42:11.863Z,19.77
2018-01-10T08:44:39.503Z,20.70
2018-01-10T08:47:07.012Z,20.27
2018-01-10T08:49:34.546Z,21.47
2018-01-10T08:52:02.280Z,21.60
2018-01-10T08:54:29.768Z,20.47
2018-01-10T08:56:57.399Z,20.90
2018-01-10T08:59:24.959Z,21.00
2018-01-10T09:01:52.570Z,20.40
2018-01-10T09:04:20.125Z,21.53
2018-01-10T09:06:47.684Z,22.13
2018-01-10T09:09:16.491Z,20.27
2018-01-10T09:11:44.005Z,20.43
2018-01-10T09:14:11.521Z,20.03
2018-01-10T09:16:39.762Z,20.43
2018-01-10T09:19:08.020Z,18.87
2018-01-10T09:21:35.611Z,17.60
2018-01-10T09:24:03.196Z,17.73
2018-01-10T09:26:30.688Z,18.00
2018-01-10T09:28:58.179Z,18.33
2018-01-10T09:31:25.679Z,18.50
2018-01-10T09:33:53.247Z,18.50
2018-01-10T09:36:20.796Z,18.27
2018-01-10T09:38:48.897Z,18.00
2018-01-10T09:41:17.401Z,18.60
2018-01-10T09:43:45.134Z,17.47
2018-01-10T09:46:12.704Z,17.37
2018-01-10T09:48:40.316Z,17.73
2018-01-10T09:51:07.869Z,16.83
2018-01-10T09:53:35.431Z,16.07
2018-01-10T09:56:03.037Z,15.27
2018-01-10T09:58:31.415Z,16.50
2018-01-10T10:00:58.985Z,15.17
2018-01-10T10:03:26.567Z,15.67
2018-01-10T10:05:54.097Z,15.50
2018-01-10T10:08:21.622Z,14.60
2018-01-10T10:10:49.146Z,15.43
2018-01-10T10:13:16.889Z,15.40
2018-01-10T10:15:44.519Z,13.83
2018-01-10T10:18:12.006Z,14.13
2018-01-10T10:20:39.588Z,13.83
2018-01-10T10:23:07.059Z,14.53
2018-01-10T10:25:34.545Z,13.77
2018-01-10T10:28:02.156Z,13.93
2018-01-10T10:30:29.764Z,13.57
2018-01-10T10:32:57.295Z,12.60
2018-01-10T10:35:25.070Z,12.47
2018-01-10T10:37:52.730Z,12.77
2018-01-10T10:40:20.289Z,11.47
2018-01-10T10:42:47.840Z,11.60
2018-01-10T10:45:15.410Z,10.73
2018-01-10T10:47:42.909Z,10.87
2018-01-10T10:50:10.448Z,11.97
2018-01-10T10:52:38.032Z,10.40
2018-01-10T10:55:05.577Z,10.40
2018-01-10T10:57:33.097Z,10.33
2018-01-10T11:00:00.724Z,10.17
2018-01-10T11:02:28.424Z,9.67
2018-01-10T11:04:55.903Z,9.27
2018-01-10T11:07:25.743Z,10.60
2018-01-10T11:09:54.442Z,11.50
2018-01-10T11:12:21.985Z,9.63
2018-01-10T11:14:49.528Z,10.60
2018-01-10T11:17:17.065Z,10.90
2018-01-10T11:19:44.619Z,12.70
2018-01-10T11:22:12.131Z,10.87
2018-01-10T11:24:39.634Z,9.73
2018-01-10T11:27:07.238Z,9.80
2018-01-10T11:29:34.691Z,10.13
2018-01-10T11:32:02.318Z,9.47
2018-01-10T11:34:30.281Z,10.00
2018-01-10T11:36:57.859Z,8.70
2018-01-10T11:39:26.062Z,8.03
2018-01-10T11:41:53.760Z,7.63
2018-01-10T11:44:21.322Z,8.00
2018-01-10T11:46:49.015Z,7.00
2018-01-10T11:49:16.756Z,6.70
2018-01-10T11:58:29.874Z,5.63
2018-01-10T12:00:57.422Z,6.40
2018-01-10T12:03:25.084Z,5.57
2018-01-10T12:05:52.682Z,6.20
2018-01-10T12:08:20.457Z,5.60
2018-01-10T12:10:48.006Z,5.67
2018-01-10T12:13:15.497Z,5.90
2018-01-10T12:15:43.012Z,5.70
2018-01-10T12:18:10.525Z,4.90
2018-01-10T12:20:38.591Z,5.13
2018-01-10T12:23:06.067Z,5.03
2018-01-10T12:25:34.478Z,4.87
2018-01-10T12:28:02.037Z,5.53
2018-01-10T12:30:29.566Z,5.23
2018-01-10T12:32:57.112Z,5.50
2018-01-10T12:35:24.769Z,5.13
2018-01-10T12:37:52.408Z,5.27
2018-01-10T12:40:20.059Z,5.43
2018-01-10T12:42:47.665Z,5.13
2018-01-10T12:45:15.134Z,4.83
2018-01-10T12:47:42.651Z,4.83
2018-01-10T12:50:21.818Z,5.00
2018-01-10T12:52:49.331Z,4.30
2018-01-10T12:55:16.925Z,4.70
2018-01-10T12:57:46.180Z,4.57
2018-01-10T13:00:13.771Z,4.63
2018-01-10T13:02:41.373Z,4.37
2018-01-10T13:05:08.920Z,4.27
2018-01-10T13:07:36.526Z,3.93
2018-01-10T13:10:04.030Z,4.10
2018-01-10T13:12:31.531Z,4.40
2018-01-10T13:14:59.091Z,4.37
2018-01-10T13:17:26.815Z,4.97
2018-01-10T13:19:54.424Z,4.27
2018-01-10T13:22:22.370Z,4.40
2018-01-10T13:24:49.896Z,4.40
2018-01-10T13:27:17.628Z,5.70
2018-01-10T13:29:45.963Z,4.50
2018-01-10T13:32:13.422Z,4.37
2018-01-10T13:34:40.977Z,5.03
2018-01-10T13:37:08.508Z,4.53
2018-01-10T13:39:36.061Z,4.67
2018-01-10T13:42:03.622Z,4.13
2018-01-10T13:44:31.168Z,4.23
2018-01-10T13:46:58.744Z,5.07
2018-01-10T13:49:26.212Z,4.23
2018-01-10T13:51:53.714Z,5.17
2018-01-10T13:54:21.331Z,4.80
2018-01-10T13:56:49.678Z,4.80
2018-01-10T13:59:17.241Z,4.60
2018-01-10T14:01:55.187Z,5.20
2018-01-10T14:04:22.741Z,4.53
2018-01-10T14:06:50.231Z,4.67
2018-01-10T14:09:17.855Z,4.53
2018-01-10T14:11:45.473Z,4.07
2018-01-10T14:14:12.931Z,4.43
2018-01-10T14:16:40.554Z,4.60
2018-01-10T14:19:08.214Z,4.53
2018-01-10T14:21:37.486Z,4.63
2018-01-10T14:24:05.063Z,4.73
2018-01-10T14:26:33.343Z,5.20
2018-01-10T14:29:01.011Z,5.07
2018-01-10T14:31:28.583Z,5.03
2018-01-10T14:33:56.103Z,5.27
2018-01-10T14:36:23.643Z,4.70
2018-01-10T14:38:51.922Z,4.97
2018-01-10T14:41:19.484Z,4.97
2018-01-10T14:43:47.196Z,5.17
2018-01-10T14:46:14.727Z,6.30
2018-01-10T14:48:45.062Z,5.80
2018-01-10T14:51:12.646Z,5.67
2018-01-10T14:53:40.102Z,5.00
2018-01-10T14:56:07.697Z,5.10
2018-01-10T14:58:35.253Z,5.47
2018-01-10T15:01:02.783Z,4.83
2018-01-10T15:03:30.288Z,5.20
2018-01-10T15:05:57.865Z,5.23
2018-01-10T15:08:25.465Z,4.87
2018-01-10T15:10:53.014Z,5.63
2018-01-10T15:13:20.505Z,4.97
2018-01-10T15:15:47.970Z,5.17
2018-01-10T15:18:15.547Z,5.37
2018-01-10T15:20:43.065Z,5.23
2018-01-10T15:23:10.887Z,5.80
2018-01-10T15:25:38.414Z,5.37
2018-01-10T15:28:05.892Z,5.67
2018-01-10T15:30:33.471Z,5.70
2018-01-10T15:33:01.006Z,5.13
2018-01-10T15:35:28.495Z,5.00
2018-01-10T15:37:55.986Z,6.33
2018-01-10T15:40:28.431Z,6.43
2018-01-10T15:42:55.983Z,6.33
2018-01-10T15:45:23.470Z,5.83
2018-01-10T15:47:51.031Z,6.17
2018-01-10T15:50:19.361Z,6.50
2018-01-10T15:52:47.082Z,6.43
2018-01-10T15:55:14.815Z,6.17
2018-01-10T15:57:42.436Z,7.10
2018-01-10T16:00:10.935Z,7.13
2018-01-10T16:02:38.526Z,8.17
2018-01-10T16:05:05.995Z,7.43
2018-01-10T16:07:33.494Z,7.00
2018-01-10T16:10:01.058Z,7.13
2018-01-10T16:12:28.617Z,8.03
2018-01-10T16:14:56.080Z,6.93
2018-01-10T16:17:23.558Z,6.93
2018-01-10T16:19:51.106Z,6.77
2018-01-10T16:22:18.662Z,6.87
2018-01-10T16:24:46.226Z,7.47
2018-01-10T16:27:13.714Z,6.87
2018-01-10T16:29:41.295Z,7.30
2018-01-10T16:32:08.868Z,7.37
2018-01-10T16:34:36.451Z,8.10
2018-01-10T16:37:04.743Z,7.23
2018-01-10T16:39:32.351Z,7.57
2018-01-10T16:41:59.991Z,8.23
2018-01-10T16:44:27.544Z,8.80
2018-01-10T16:46:55.054Z,7.77
2018-01-10T16:49:22.594Z,8.37
2018-01-10T16:51:50.506Z,8.37
2018-01-10T16:54:18.041Z,8.77
2018-01-10T16:56:45.511Z,8.63
2018-01-10T16:59:13.021Z,8.83
2018-01-10T17:01:40.519Z,9.20
2018-01-10T17:04:08.007Z,8.30
2018-01-10T17:06:35.534Z,9.50
2018-01-10T17:09:03.011Z,9.27
2018-01-10T17:11:30.731Z,9.23
2018-01-10T17:13:58.348Z,8.30
2018-01-10T17:16:26.052Z,9.23
2018-01-10T17:18:53.672Z,8.67
2018-01-10T17:21:21.286Z,9.10
2018-01-10T17:23:49.094Z,9.73
2018-01-10T17:26:17.056Z,10.33
2018-01-10T17:28:44.661Z,9.37
2018-01-10T17:31:12.347Z,10.37
2018-01-10T17:33:39.897Z,10.13
2018-01-10T17:36:07.466Z,9.30
2018-01-10T17:38:35.084Z,10.47
2018-01-10T17:41:02.849Z,9.93
2018-01-10T17:43:30.367Z,9.80
2018-01-10T17:45:57.937Z,10.07
2018-01-10T17:48:25.767Z,9.67
2018-01-10T17:50:58.337Z,9.90
2018-01-10T17:53:26.063Z,10.30
2018-01-10T17:55:53.598Z,10.60
2018-01-10T17:58:21.243Z,10.30
2018-01-10T18:00:48.808Z,9.73
2018-01-10T18:03:16.671Z,10.40
2018-01-10T18:05:44.359Z,10.23
2018-01-10T18:08:12.032Z,10.77
2018-01-10T18:10:40.607Z,11.67
2018-01-10T18:13:08.190Z,9.77
2018-01-10T18:15:35.689Z,12.83
2018-01-10T18:18:03.706Z,11.93
2018-01-10T18:20:32.308Z,11.23
2018-01-10T18:22:59.903Z,12.03
2018-01-10T18:25:27.358Z,10.77
2018-01-10T18:27:54.947Z,10.87
2018-01-10T18:30:22.552Z,10.57
2018-01-10T18:32:50.082Z,11.50
2018-01-10T18:35:19.112Z,10.63
2018-01-10T18:37:47.059Z,11.27
2018-01-10T18:40:14.789Z,11.07
2018-01-10T18:42:42.356Z,11.00
2018-01-10T18:45:10.028Z,11.43
2018-01-10T18:47:37.639Z,11.23
2018-01-10T18:50:05.145Z,12.57
2018-01-10T18:52:32.765Z,12.27
2018-01-10T18:55:01.084Z,11.80
2018-01-10T18:57:28.691Z,12.23
2018-01-10T18:59:56.988Z,12.60
2018-01-10T19:02:24.661Z,12.30
2018-01-10T19:04:52.371Z,12.80
2018-01-10T19:07:21.502Z,12.73
2018-01-10T19:09:49.249Z,11.83
2018-01-10T19:12:16.988Z,13.43
2018-01-10T19:14:44.606Z,12.77
2018-01-10T19:17:12.813Z,13.13
2018-01-10T19:19:41.084Z,14.83
2018-01-10T19:22:10.019Z,14.63
2018-01-10T19:24:40.221Z,15.83
2018-01-10T19:27:08.300Z,15.10
2018-01-10T19:29:37.445Z,14.80
2018-01-10T19:32:05.397Z,15.00
2018-01-10T19:34:33.798Z,14.87
2018-01-10T19:37:01.500Z,15.03
2018-01-10T19:39:30.248Z,14.73
2018-01-10T19:41:59.173Z,14.90
2018-01-10T19:44:26.794Z,14.40
2018-01-10T19:46:56.243Z,14.23
2018-01-10T19:49:25.300Z,15.43
2018-01-10T19:51:54.312Z,16.40
2018-01-10T19:54:21.901Z,14.50
2018-01-10T19:56:50.877Z,14.97
2018-01-10T19:59:18.463Z,15.37
2018-01-10T20:01:46.310Z,15.00
2018-01-10T20:04:13.998Z,15.50
2018-01-10T20:06:41.510Z,16.10
2018-01-10T20:09:09.051Z,15.47
2018-01-10T20:11:36.585Z,14.63
2018-01-10T20:14:04.238Z,13.80
2018-01-10T20:16:31.798Z,14.97
2018-01-10T20:18:59.624Z,14.57
2018-01-10T20:21:36.898Z,13.23
2018-01-10T20:24:05.518Z,14.37
2018-01-10T20:26:33.757Z,14.13
2018-01-10T20:29:01.318Z,14.03
2018-01-10T20:31:28.818Z,12.83
2018-01-10T20:33:56.339Z,14.63
2018-01-10T20:36:24.092Z,14.20
2018-01-10T20:38:51.561Z,14.77
2018-01-10T20:41:19.457Z,13.60
2018-01-10T20:43:46.979Z,13.40
2018-01-10T20:46:14.564Z,14.40
2018-01-10T20:48:42.911Z,15.77
2018-01-10T20:51:10.408Z,15.63
2018-01-10T20:53:38.009Z,14.67
2018-01-10T20:56:05.580Z,14.40
2018-01-10T20:58:34.408Z,14.80
2018-01-10T21:01:01.961Z,14.93
2018-01-10T21:03:30.374Z,15.80
2018-01-10T21:05:58.139Z,14.30
2018-01-10T21:08:25.791Z,14.93
2018-01-10T21:10:54.006Z,15.23
2018-01-10T21:13:21.580Z,15.53
2018-01-10T21:15:49.115Z,15.03
2018-01-10T21:18:16.713Z,14.47
2018-01-10T21:20:44.267Z,15.10
2018-01-10T21:23:11.800Z,14.67
2018-01-10T21:25:40.394Z,13.70
2018-01-10T21:28:08.184Z,14.03
2018-01-10T21:30:36.593Z,13.23
2018-01-10T21:33:04.858Z,13.83
2018-01-10T21:35:32.404Z,14.20
2018-01-10T21:38:00.213Z,14.30
2018-01-10T21:40:27.877Z,14.23
2018-01-10T21:42:55.593Z,13.40
2018-01-10T21:45:23.143Z,12.87
2018-01-10T21:47:50.718Z,14.53
2018-01-10T21:50:19.136Z,16.00
2018-01-10T21:52:48.027Z,15.47
2018-01-10T21:55:16.102Z,14.70
2018-01-10T21:57:43.605Z,14.60
2018-01-10T22:00:11.132Z,14.00
2018-01-10T22:02:38.713Z,13.83
2018-01-10T22:05:06.478Z,13.07
2018-01-10T22:07:34.016Z,12.90
2018-01-10T22:10:01.553Z,13.40
2018-01-10T22:12:29.245Z,13.07
2018-01-10T22:14:56.740Z,13.43
2018-01-10T22:17:24.239Z,13.27
2018-01-10T22:19:51.931Z,13.23
2018-01-10T22:22:19.455Z,13.70
2018-01-10T22:24:46.965Z,13.53
2018-01-10T22:27:14.572Z,13.40
2018-01-10T22:29:42.207Z,14.00
2018-01-10T22:32:09.753Z,13.57
2018-01-10T22:34:37.995Z,12.73
2018-01-10T22:37:05.551Z,13.47
2018-01-10T22:39:33.095Z,14.27
2018-01-10T22:42:01.429Z,14.60
2018-01-10T22:44:28.921Z,14.17
2018-01-10T22:46:56.422Z,13.77
2018-01-10T22:49:24.051Z,14.70
2018-01-10T22:51:51.680Z,14.27
2018-01-10T22:54:20.125Z,14.13
2018-01-10T22:56:47.582Z,13.37
2018-01-10T22:59:15.043Z,14.57
2018-01-10T23:01:42.631Z,15.50
2018-01-10T23:04:10.138Z,12.83
2018-01-10T23:06:38.612Z,15.00
2018-01-10T23:09:06.178Z,15.43
2018-01-10T23:11:33.660Z,13.43
2018-01-10T23:14:01.133Z,14.07
2018-01-10T23:16:29.563Z,14.53
2018-01-10T23:18:57.073Z,15.47
2018-01-10T23:21:34.157Z,14.83
2018-01-10T23:24:01.677Z,14.67
2018-01-10T23:26:29.220Z,14.10
2018-01-10T23:28:56.934Z,15.00
2018-01-10T23:31:24.389Z,15.50
2018-01-10T23:33:51.869Z,16.10
2018-01-10T23:36:19.451Z,16.10
2018-01-10T23:38:46.934Z,15.90
2018-01-10T23:41:14.496Z,16.87
2018-01-10T23:43:41.998Z,16.47
2018-01-10T23:46:09.462Z,14.80
2018-01-10T23:48:36.942Z,16.20
2018-01-10T23:51:04.480Z,16.83
2018-01-10T23:53:31.999Z,17.20
2018-01-10T23:55:59.516Z,15.93
2018-01-10T23:58:27.015Z,17.23
